sensor_id;sensor_type;location;lat;lon;timestamp;P1;durP1;ratioP1;P2;durP2;ratioP2
5951;SDS011;3001;42.622;23.194;2023-08-08T00:00:17;1.40;;;1.30;;
5951;SDS011;3001;42.622;23.194;2023-08-08T00:02:44;1.10;;;1.10;;
5951;SDS011;3001;42.622;23.194;2023-08-08T00:05:10;1.20;;;1.20;;
5951;SDS011;3001;42.622;23.194;2023-08-08T00:07:37;1.40;;;1.00;;
5951;SDS011;3001;42.622;23.194;2023-08-08T00:10:06;1.70;;;1.70;;
5951;SDS011;3001;42.622;23.194;2023-08-08T00:12:33;1.50;;;1.50;;
5951;SDS011;3001;42.622;23.194;2023-08-08T00:15:00;1.60;;;1.40;;
5951;SDS011;3001;42.622;23.194;2023-08-08T00:17:27;3.03;;;2.10;;
5951;SDS011;3001;42.622;23.194;2023-08-08T00:19:54;1.30;;;1.30;;
5951;SDS011;3001;42.622;23.194;2023-08-08T00:22:20;1.30;;;1.30;;
5951;SDS011;3001;42.622;23.194;2023-08-08T00:24:47;1.40;;;1.40;;
5951;SDS011;3001;42.622;23.194;2023-08-08T00:27:15;1.30;;;1.30;;
5951;SDS011;3001;42.622;23.194;2023-08-08T00:29:42;1.10;;;1.10;;
5951;SDS011;3001;42.622;23.194;2023-08-08T00:32:08;1.47;;;1.37;;
5951;SDS011;3001;42.622;23.194;2023-08-08T00:34:35;1.37;;;1.33;;
5951;SDS011;3001;42.622;23.194;2023-08-08T00:37:02;1.57;;;1.47;;
5951;SDS011;3001;42.622;23.194;2023-08-08T00:39:29;1.93;;;1.83;;
5951;SDS011;3001;42.622;23.194;2023-08-08T00:41:56;1.27;;;1.27;;
5951;SDS011;3001;42.622;23.194;2023-08-08T00:44:24;1.43;;;1.43;;
5951;SDS011;3001;42.622;23.194;2023-08-08T00:46:50;1.30;;;1.30;;
5951;SDS011;3001;42.622;23.194;2023-08-08T00:49:17;1.50;;;1.50;;
5951;SDS011;3001;42.622;23.194;2023-08-08T00:51:44;1.50;;;1.50;;
5951;SDS011;3001;42.622;23.194;2023-08-08T00:54:11;2.07;;;1.57;;
5951;SDS011;3001;42.622;23.194;2023-08-08T00:56:39;1.27;;;1.27;;
5951;SDS011;3001;42.622;23.194;2023-08-08T00:59:06;1.60;;;1.60;;
5951;SDS011;3001;42.622;23.194;2023-08-08T01:01:36;1.50;;;1.50;;
5951;SDS011;3001;42.622;23.194;2023-08-08T01:04:03;1.70;;;1.70;;
5951;SDS011;3001;42.622;23.194;2023-08-08T01:06:31;1.60;;;1.60;;
5951;SDS011;3001;42.622;23.194;2023-08-08T01:09:04;1.60;;;1.60;;
5951;SDS011;3001;42.622;23.194;2023-08-08T01:11:35;1.47;;;1.47;;
5951;SDS011;3001;42.622;23.194;2023-08-08T01:14:03;1.63;;;1.63;;
5951;SDS011;3001;42.622;23.194;2023-08-08T01:16:33;1.60;;;1.60;;
5951;SDS011;3001;42.622;23.194;2023-08-08T01:19:01;1.90;;;1.90;;
5951;SDS011;3001;42.622;23.194;2023-08-08T01:21:30;1.73;;;1.73;;
5951;SDS011;3001;42.622;23.194;2023-08-08T01:24:12;1.80;;;1.80;;
5951;SDS011;3001;42.622;23.194;2023-08-08T01:26:43;1.83;;;1.83;;
5951;SDS011;3001;42.622;23.194;2023-08-08T01:29:10;1.83;;;1.83;;
5951;SDS011;3001;42.622;23.194;2023-08-08T01:31:37;2.10;;;1.93;;
5951;SDS011;3001;42.622;23.194;2023-08-08T01:34:03;1.70;;;1.70;;
5951;SDS011;3001;42.622;23.194;2023-08-08T01:36:31;1.80;;;1.70;;
5951;SDS011;3001;42.622;23.194;2023-08-08T01:39:02;1.80;;;1.80;;
5951;SDS011;3001;42.622;23.194;2023-08-08T01:41:32;1.80;;;1.70;;
5951;SDS011;3001;42.622;23.194;2023-08-08T01:44:00;1.77;;;1.70;;
5951;SDS011;3001;42.622;23.194;2023-08-08T01:46:27;1.90;;;1.90;;
5951;SDS011;3001;42.622;23.194;2023-08-08T01:48:55;2.20;;;2.10;;
5951;SDS011;3001;42.622;23.194;2023-08-08T01:51:24;2.07;;;2.00;;
5951;SDS011;3001;42.622;23.194;2023-08-08T01:53:50;2.10;;;2.00;;
5951;SDS011;3001;42.622;23.194;2023-08-08T01:56:17;2.53;;;2.43;;
5951;SDS011;3001;42.622;23.194;2023-08-08T01:58:45;1.80;;;1.70;;
5951;SDS011;3001;42.622;23.194;2023-08-08T02:01:12;1.77;;;1.77;;
5951;SDS011;3001;42.622;23.194;2023-08-08T02:03:39;1.90;;;1.80;;
5951;SDS011;3001;42.622;23.194;2023-08-08T02:06:05;2.20;;;2.10;;
5951;SDS011;3001;42.622;23.194;2023-08-08T02:08:32;1.70;;;1.70;;
5951;SDS011;3001;42.622;23.194;2023-08-08T02:10:59;2.53;;;2.43;;
5951;SDS011;3001;42.622;23.194;2023-08-08T02:13:25;2.20;;;2.10;;
5951;SDS011;3001;42.622;23.194;2023-08-08T02:15:53;2.40;;;2.30;;
5951;SDS011;3001;42.622;23.194;2023-08-08T02:18:20;1.97;;;1.87;;
5951;SDS011;3001;42.622;23.194;2023-08-08T02:20:47;2.37;;;2.27;;
5951;SDS011;3001;42.622;23.194;2023-08-08T02:23:13;2.20;;;2.00;;
5951;SDS011;3001;42.622;23.194;2023-08-08T02:25:40;2.13;;;2.07;;
5951;SDS011;3001;42.622;23.194;2023-08-08T02:28:07;2.07;;;1.97;;
5951;SDS011;3001;42.622;23.194;2023-08-08T02:30:34;5.23;;;2.93;;
5951;SDS011;3001;42.622;23.194;2023-08-08T02:33:02;2.40;;;2.30;;
5951;SDS011;3001;42.622;23.194;2023-08-08T02:35:28;2.37;;;2.27;;
5951;SDS011;3001;42.622;23.194;2023-08-08T02:37:56;2.27;;;2.17;;
5951;SDS011;3001;42.622;23.194;2023-08-08T02:40:22;2.67;;;2.40;;
5951;SDS011;3001;42.622;23.194;2023-08-08T02:42:49;2.43;;;2.33;;
5951;SDS011;3001;42.622;23.194;2023-08-08T02:45:16;2.53;;;2.43;;
5951;SDS011;3001;42.622;23.194;2023-08-08T02:47:43;2.47;;;2.37;;
5951;SDS011;3001;42.622;23.194;2023-08-08T02:50:11;2.60;;;2.40;;
5951;SDS011;3001;42.622;23.194;2023-08-08T02:52:37;2.47;;;2.37;;
5951;SDS011;3001;42.622;23.194;2023-08-08T02:55:05;2.27;;;2.17;;
5951;SDS011;3001;42.622;23.194;2023-08-08T02:57:33;2.63;;;2.53;;
5951;SDS011;3001;42.622;23.194;2023-08-08T02:59:59;2.63;;;2.47;;
5951;SDS011;3001;42.622;23.194;2023-08-08T03:02:27;2.50;;;2.27;;
5951;SDS011;3001;42.622;23.194;2023-08-08T03:04:53;2.60;;;2.50;;
5951;SDS011;3001;42.622;23.194;2023-08-08T03:07:21;2.80;;;2.70;;
5951;SDS011;3001;42.622;23.194;2023-08-08T03:09:48;2.97;;;2.87;;
5951;SDS011;3001;42.622;23.194;2023-08-08T03:12:14;2.93;;;2.83;;
5951;SDS011;3001;42.622;23.194;2023-08-08T03:14:41;2.83;;;2.73;;
5951;SDS011;3001;42.622;23.194;2023-08-08T03:17:08;2.80;;;2.70;;
5951;SDS011;3001;42.622;23.194;2023-08-08T03:19:34;2.60;;;2.50;;
5951;SDS011;3001;42.622;23.194;2023-08-08T03:22:01;2.60;;;2.50;;
5951;SDS011;3001;42.622;23.194;2023-08-08T03:24:29;2.83;;;2.67;;
5951;SDS011;3001;42.622;23.194;2023-08-08T03:26:56;3.00;;;2.90;;
5951;SDS011;3001;42.622;23.194;2023-08-08T03:29:23;2.87;;;2.77;;
5951;SDS011;3001;42.622;23.194;2023-08-08T03:31:49;3.00;;;2.73;;
5951;SDS011;3001;42.622;23.194;2023-08-08T03:34:16;3.23;;;3.13;;
5951;SDS011;3001;42.622;23.194;2023-08-08T03:36:42;2.87;;;2.77;;
5951;SDS011;3001;42.622;23.194;2023-08-08T03:39:09;2.57;;;2.47;;
5951;SDS011;3001;42.622;23.194;2023-08-08T03:41:37;3.20;;;3.00;;
5951;SDS011;3001;42.622;23.194;2023-08-08T03:44:04;3.30;;;3.20;;
5951;SDS011;3001;42.622;23.194;2023-08-08T03:46:31;3.37;;;3.27;;
5951;SDS011;3001;42.622;23.194;2023-08-08T03:48:59;3.53;;;3.30;;
5951;SDS011;3001;42.622;23.194;2023-08-08T03:51:25;3.20;;;3.10;;
5951;SDS011;3001;42.622;23.194;2023-08-08T03:53:52;3.47;;;3.27;;
5951;SDS011;3001;42.622;23.194;2023-08-08T03:56:19;3.30;;;3.20;;
5951;SDS011;3001;42.622;23.194;2023-08-08T03:58:47;3.20;;;3.10;;
5951;SDS011;3001;42.622;23.194;2023-08-08T04:01:13;3.83;;;3.47;;
5951;SDS011;3001;42.622;23.194;2023-08-08T04:03:40;3.50;;;3.30;;
5951;SDS011;3001;42.622;23.194;2023-08-08T04:06:07;3.20;;;3.10;;
5951;SDS011;3001;42.622;23.194;2023-08-08T04:08:33;7.10;;;3.80;;
5951;SDS011;3001;42.622;23.194;2023-08-08T04:11:00;3.57;;;3.47;;
5951;SDS011;3001;42.622;23.194;2023-08-08T04:13:27;3.20;;;3.10;;
5951;SDS011;3001;42.622;23.194;2023-08-08T04:15:55;3.67;;;3.57;;
5951;SDS011;3001;42.622;23.194;2023-08-08T04:18:22;2.93;;;2.83;;
5951;SDS011;3001;42.622;23.194;2023-08-08T04:20:48;3.47;;;3.37;;
5951;SDS011;3001;42.622;23.194;2023-08-08T04:23:15;3.07;;;2.93;;
5951;SDS011;3001;42.622;23.194;2023-08-08T04:25:41;3.20;;;3.10;;
5951;SDS011;3001;42.622;23.194;2023-08-08T04:28:08;3.50;;;3.40;;
5951;SDS011;3001;42.622;23.194;2023-08-08T04:30:35;3.63;;;3.50;;
5951;SDS011;3001;42.622;23.194;2023-08-08T04:33:03;3.23;;;3.13;;
5951;SDS011;3001;42.622;23.194;2023-08-08T04:35:30;3.20;;;2.97;;
5951;SDS011;3001;42.622;23.194;2023-08-08T04:37:57;2.77;;;2.67;;
5951;SDS011;3001;42.622;23.194;2023-08-08T04:40:24;3.23;;;3.03;;
5951;SDS011;3001;42.622;23.194;2023-08-08T04:42:51;3.10;;;3.00;;
5951;SDS011;3001;42.622;23.194;2023-08-08T04:45:18;2.97;;;2.87;;
5951;SDS011;3001;42.622;23.194;2023-08-08T04:47:46;3.40;;;3.30;;
5951;SDS011;3001;42.622;23.194;2023-08-08T04:50:14;3.13;;;3.03;;
5951;SDS011;3001;42.622;23.194;2023-08-08T04:52:40;3.30;;;3.20;;
5951;SDS011;3001;42.622;23.194;2023-08-08T04:55:07;3.93;;;3.73;;
5951;SDS011;3001;42.622;23.194;2023-08-08T04:57:35;3.70;;;3.50;;
5951;SDS011;3001;42.622;23.194;2023-08-08T05:00:01;3.70;;;3.50;;
5951;SDS011;3001;42.622;23.194;2023-08-08T05:02:30;4.03;;;3.77;;
5951;SDS011;3001;42.622;23.194;2023-08-08T05:04:57;3.40;;;3.30;;
5951;SDS011;3001;42.622;23.194;2023-08-08T05:07:27;3.90;;;3.70;;
5951;SDS011;3001;42.622;23.194;2023-08-08T05:09:53;5.20;;;3.90;;
5951;SDS011;3001;42.622;23.194;2023-08-08T05:12:20;3.40;;;3.30;;
5951;SDS011;3001;42.622;23.194;2023-08-08T05:14:47;3.30;;;3.20;;
5951;SDS011;3001;42.622;23.194;2023-08-08T05:17:13;2.73;;;2.63;;
5951;SDS011;3001;42.622;23.194;2023-08-08T05:19:40;3.00;;;2.90;;
5951;SDS011;3001;42.622;23.194;2023-08-08T05:22:07;2.17;;;2.10;;
5951;SDS011;3001;42.622;23.194;2023-08-08T05:24:35;2.37;;;2.27;;
5951;SDS011;3001;42.622;23.194;2023-08-08T05:27:01;2.70;;;2.60;;
5951;SDS011;3001;42.622;23.194;2023-08-08T05:29:29;2.80;;;2.60;;
5951;SDS011;3001;42.622;23.194;2023-08-08T05:31:56;2.50;;;2.40;;
5951;SDS011;3001;42.622;23.194;2023-08-08T05:34:23;2.50;;;2.47;;
5951;SDS011;3001;42.622;23.194;2023-08-08T05:36:50;2.37;;;2.27;;
5951;SDS011;3001;42.622;23.194;2023-08-08T05:39:18;2.97;;;2.77;;
5951;SDS011;3001;42.622;23.194;2023-08-08T05:41:46;2.80;;;2.60;;
5951;SDS011;3001;42.622;23.194;2023-08-08T05:44:12;2.97;;;2.87;;
5951;SDS011;3001;42.622;23.194;2023-08-08T05:46:39;2.33;;;2.23;;
5951;SDS011;3001;42.622;23.194;2023-08-08T05:49:06;2.33;;;2.33;;
5951;SDS011;3001;42.622;23.194;2023-08-08T05:51:32;2.90;;;2.80;;
5951;SDS011;3001;42.622;23.194;2023-08-08T05:53:59;3.00;;;2.90;;
5951;SDS011;3001;42.622;23.194;2023-08-08T05:56:27;4.13;;;3.77;;
5951;SDS011;3001;42.622;23.194;2023-08-08T05:58:55;3.57;;;3.47;;
5951;SDS011;3001;42.622;23.194;2023-08-08T06:01:22;3.80;;;3.70;;
5951;SDS011;3001;42.622;23.194;2023-08-08T06:03:49;3.80;;;3.70;;
5951;SDS011;3001;42.622;23.194;2023-08-08T06:06:15;4.00;;;3.90;;
5951;SDS011;3001;42.622;23.194;2023-08-08T06:08:42;4.30;;;4.10;;
5951;SDS011;3001;42.622;23.194;2023-08-08T06:11:09;4.37;;;4.17;;
5951;SDS011;3001;42.622;23.194;2023-08-08T06:13:36;4.13;;;4.03;;
5951;SDS011;3001;42.622;23.194;2023-08-08T06:16:04;4.37;;;4.27;;
5951;SDS011;3001;42.622;23.194;2023-08-08T06:18:32;4.60;;;4.40;;
5951;SDS011;3001;42.622;23.194;2023-08-08T06:20:58;4.60;;;4.40;;
5951;SDS011;3001;42.622;23.194;2023-08-08T06:23:25;4.27;;;4.17;;
5951;SDS011;3001;42.622;23.194;2023-08-08T06:25:52;3.73;;;3.63;;
5951;SDS011;3001;42.622;23.194;2023-08-08T06:28:19;4.20;;;4.00;;
5951;SDS011;3001;42.622;23.194;2023-08-08T06:30:46;5.30;;;4.80;;
5951;SDS011;3001;42.622;23.194;2023-08-08T06:33:14;4.20;;;4.10;;
5951;SDS011;3001;42.622;23.194;2023-08-08T06:35:41;4.37;;;4.17;;
5951;SDS011;3001;42.622;23.194;2023-08-08T06:38:08;3.93;;;3.63;;
5951;SDS011;3001;42.622;23.194;2023-08-08T06:40:35;4.13;;;4.03;;
5951;SDS011;3001;42.622;23.194;2023-08-08T06:43:03;3.77;;;3.67;;
5951;SDS011;3001;42.622;23.194;2023-08-08T06:45:30;3.73;;;3.63;;
5951;SDS011;3001;42.622;23.194;2023-08-08T06:47:56;3.50;;;3.40;;
5951;SDS011;3001;42.622;23.194;2023-08-08T06:50:24;3.27;;;3.17;;
5951;SDS011;3001;42.622;23.194;2023-08-08T06:52:51;2.57;;;2.47;;
5951;SDS011;3001;42.622;23.194;2023-08-08T06:55:18;2.57;;;2.47;;
5951;SDS011;3001;42.622;23.194;2023-08-08T06:57:45;3.10;;;3.00;;
5951;SDS011;3001;42.622;23.194;2023-08-08T07:00:12;2.70;;;2.60;;
5951;SDS011;3001;42.622;23.194;2023-08-08T07:02:41;2.67;;;2.47;;
5951;SDS011;3001;42.622;23.194;2023-08-08T07:05:08;2.20;;;2.20;;
5951;SDS011;3001;42.622;23.194;2023-08-08T07:07:37;2.30;;;2.27;;
5951;SDS011;3001;42.622;23.194;2023-08-08T07:10:04;2.70;;;2.63;;
5951;SDS011;3001;42.622;23.194;2023-08-08T07:12:31;2.20;;;2.20;;
5951;SDS011;3001;42.622;23.194;2023-08-08T07:14:58;2.33;;;2.23;;
5951;SDS011;3001;42.622;23.194;2023-08-08T07:17:25;1.70;;;1.70;;
5951;SDS011;3001;42.622;23.194;2023-08-08T07:19:51;2.20;;;2.10;;
5951;SDS011;3001;42.622;23.194;2023-08-08T07:22:18;1.77;;;1.77;;
5951;SDS011;3001;42.622;23.194;2023-08-08T07:24:47;1.87;;;1.87;;
5951;SDS011;3001;42.622;23.194;2023-08-08T07:27:13;2.23;;;2.00;;
5951;SDS011;3001;42.622;23.194;2023-08-08T07:29:40;2.40;;;2.30;;
5951;SDS011;3001;42.622;23.194;2023-08-08T07:32:07;2.47;;;2.23;;
5951;SDS011;3001;42.622;23.194;2023-08-08T07:34:34;2.33;;;2.13;;
5951;SDS011;3001;42.622;23.194;2023-08-08T07:37:01;1.83;;;1.83;;
5951;SDS011;3001;42.622;23.194;2023-08-08T07:39:29;2.03;;;2.03;;
5951;SDS011;3001;42.622;23.194;2023-08-08T07:41:57;2.10;;;2.00;;
5951;SDS011;3001;42.622;23.194;2023-08-08T07:44:23;2.00;;;2.00;;
5951;SDS011;3001;42.622;23.194;2023-08-08T07:46:50;3.53;;;2.07;;
5951;SDS011;3001;42.622;23.194;2023-08-08T07:49:17;2.40;;;2.00;;
5951;SDS011;3001;42.622;23.194;2023-08-08T07:51:44;1.80;;;1.80;;
5951;SDS011;3001;42.622;23.194;2023-08-08T07:54:10;1.70;;;1.70;;
5951;SDS011;3001;42.622;23.194;2023-08-08T07:56:37;1.73;;;1.73;;
5951;SDS011;3001;42.622;23.194;2023-08-08T07:59:05;1.60;;;1.60;;
5951;SDS011;3001;42.622;23.194;2023-08-08T08:01:32;1.63;;;1.63;;
5951;SDS011;3001;42.622;23.194;2023-08-08T08:03:58;1.43;;;1.43;;
5951;SDS011;3001;42.622;23.194;2023-08-08T08:06:25;1.70;;;1.60;;
5951;SDS011;3001;42.622;23.194;2023-08-08T08:08:52;1.40;;;1.40;;
5951;SDS011;3001;42.622;23.194;2023-08-08T08:11:19;1.73;;;1.63;;
5951;SDS011;3001;42.622;23.194;2023-08-08T08:13:46;1.60;;;1.50;;
5951;SDS011;3001;42.622;23.194;2023-08-08T08:16:14;1.43;;;1.43;;
5951;SDS011;3001;42.622;23.194;2023-08-08T08:18:41;1.60;;;1.50;;
5951;SDS011;3001;42.622;23.194;2023-08-08T08:21:07;1.50;;;1.43;;
5951;SDS011;3001;42.622;23.194;2023-08-08T08:23:34;1.20;;;1.20;;
5951;SDS011;3001;42.622;23.194;2023-08-08T08:26:01;1.50;;;1.50;;
5951;SDS011;3001;42.622;23.194;2023-08-08T08:28:27;1.73;;;1.73;;
5951;SDS011;3001;42.622;23.194;2023-08-08T08:30:54;1.93;;;1.87;;
5951;SDS011;3001;42.622;23.194;2023-08-08T08:33:22;1.70;;;1.70;;
5951;SDS011;3001;42.622;23.194;2023-08-08T08:35:49;1.90;;;1.80;;
5951;SDS011;3001;42.622;23.194;2023-08-08T08:38:16;1.70;;;1.70;;
5951;SDS011;3001;42.622;23.194;2023-08-08T08:40:42;1.83;;;1.77;;
5951;SDS011;3001;42.622;23.194;2023-08-08T08:43:13;1.43;;;1.40;;
5951;SDS011;3001;42.622;23.194;2023-08-08T08:45:42;1.57;;;1.57;;
5951;SDS011;3001;42.622;23.194;2023-08-08T08:48:14;2.20;;;2.10;;
5951;SDS011;3001;42.622;23.194;2023-08-08T08:50:45;1.90;;;1.63;;
5951;SDS011;3001;42.622;23.194;2023-08-08T08:53:13;1.60;;;1.60;;
5951;SDS011;3001;42.622;23.194;2023-08-08T08:55:42;1.80;;;1.70;;
5951;SDS011;3001;42.622;23.194;2023-08-08T08:58:09;1.50;;;1.50;;
5951;SDS011;3001;42.622;23.194;2023-08-08T09:00:39;1.80;;;1.80;;
5951;SDS011;3001;42.622;23.194;2023-08-08T09:03:06;1.77;;;1.77;;
5951;SDS011;3001;42.622;23.194;2023-08-08T09:05:33;1.70;;;1.60;;
5951;SDS011;3001;42.622;23.194;2023-08-08T09:08:02;1.90;;;1.90;;
5951;SDS011;3001;42.622;23.194;2023-08-08T09:10:30;1.80;;;1.80;;
5951;SDS011;3001;42.622;23.194;2023-08-08T09:12:58;1.70;;;1.70;;
5951;SDS011;3001;42.622;23.194;2023-08-08T09:15:24;1.70;;;1.70;;
5951;SDS011;3001;42.622;23.194;2023-08-08T09:17:51;1.67;;;1.67;;
5951;SDS011;3001;42.622;23.194;2023-08-08T09:20:18;1.80;;;1.70;;
5951;SDS011;3001;42.622;23.194;2023-08-08T09:22:45;1.60;;;1.60;;
5951;SDS011;3001;42.622;23.194;2023-08-08T09:25:13;1.70;;;1.70;;
5951;SDS011;3001;42.622;23.194;2023-08-08T09:27:40;1.53;;;1.53;;
5951;SDS011;3001;42.622;23.194;2023-08-08T09:30:08;1.70;;;1.70;;
5951;SDS011;3001;42.622;23.194;2023-08-08T09:32:36;1.50;;;1.50;;
5951;SDS011;3001;42.622;23.194;2023-08-08T09:35:03;1.57;;;1.57;;
5951;SDS011;3001;42.622;23.194;2023-08-08T09:37:34;1.80;;;1.80;;
5951;SDS011;3001;42.622;23.194;2023-08-08T09:40:01;1.60;;;1.60;;
5951;SDS011;3001;42.622;23.194;2023-08-08T09:42:31;1.53;;;1.53;;
5951;SDS011;3001;42.622;23.194;2023-08-08T09:44:59;1.87;;;1.77;;
5951;SDS011;3001;42.622;23.194;2023-08-08T09:47:26;1.77;;;1.77;;
5951;SDS011;3001;42.622;23.194;2023-08-08T09:49:55;1.90;;;1.80;;
5951;SDS011;3001;42.622;23.194;2023-08-08T09:52:25;1.70;;;1.70;;
5951;SDS011;3001;42.622;23.194;2023-08-08T09:54:53;2.17;;;2.07;;
5951;SDS011;3001;42.622;23.194;2023-08-08T09:57:21;2.10;;;2.10;;
5951;SDS011;3001;42.622;23.194;2023-08-08T09:59:50;1.80;;;1.80;;
5951;SDS011;3001;42.622;23.194;2023-08-08T10:02:17;1.93;;;1.90;;
5951;SDS011;3001;42.622;23.194;2023-08-08T10:04:45;1.67;;;1.67;;
5951;SDS011;3001;42.622;23.194;2023-08-08T10:07:12;1.50;;;1.50;;
5951;SDS011;3001;42.622;23.194;2023-08-08T10:09:39;1.90;;;1.90;;
5951;SDS011;3001;42.622;23.194;2023-08-08T10:12:07;1.60;;;1.60;;
5951;SDS011;3001;42.622;23.194;2023-08-08T10:14:35;1.60;;;1.60;;
5951;SDS011;3001;42.622;23.194;2023-08-08T10:17:04;2.20;;;2.10;;
5951;SDS011;3001;42.622;23.194;2023-08-08T10:19:31;1.87;;;1.87;;
5951;SDS011;3001;42.622;23.194;2023-08-08T10:21:59;1.90;;;1.90;;
5951;SDS011;3001;42.622;23.194;2023-08-08T10:24:32;3.57;;;3.47;;
5951;SDS011;3001;42.622;23.194;2023-08-08T10:26:59;2.57;;;2.37;;
5951;SDS011;3001;42.622;23.194;2023-08-08T10:29:30;2.00;;;2.00;;
5951;SDS011;3001;42.622;23.194;2023-08-08T10:32:00;3.40;;;3.20;;
5951;SDS011;3001;42.622;23.194;2023-08-08T10:34:37;2.57;;;2.37;;
5951;SDS011;3001;42.622;23.194;2023-08-08T10:37:05;2.50;;;2.40;;
5951;SDS011;3001;42.622;23.194;2023-08-08T10:39:35;10.47;;;9.60;;
5951;SDS011;3001;42.622;23.194;2023-08-08T10:42:02;9.77;;;9.00;;
5951;SDS011;3001;42.622;23.194;2023-08-08T10:44:30;2.20;;;2.10;;
5951;SDS011;3001;42.622;23.194;2023-08-08T10:46:59;2.40;;;2.30;;
5951;SDS011;3001;42.622;23.194;2023-08-08T10:49:26;2.50;;;2.10;;
5951;SDS011;3001;42.622;23.194;2023-08-08T10:52:01;3.23;;;2.97;;
5951;SDS011;3001;42.622;23.194;2023-08-08T10:54:29;1.63;;;1.63;;
5951;SDS011;3001;42.622;23.194;2023-08-08T10:56:58;4.10;;;3.90;;
5951;SDS011;3001;42.622;23.194;2023-08-08T10:59:26;2.50;;;2.40;;
5951;SDS011;3001;42.622;23.194;2023-08-08T11:01:56;2.40;;;2.30;;
5951;SDS011;3001;42.622;23.194;2023-08-08T11:04:23;1.73;;;1.70;;
5951;SDS011;3001;42.622;23.194;2023-08-08T11:06:52;1.60;;;1.60;;
5951;SDS011;3001;42.622;23.194;2023-08-08T11:09:21;1.80;;;1.80;;
5951;SDS011;3001;42.622;23.194;2023-08-08T11:11:48;2.20;;;2.10;;
5951;SDS011;3001;42.622;23.194;2023-08-08T11:14:16;1.27;;;1.17;;
5951;SDS011;3001;42.622;23.194;2023-08-08T11:16:44;1.73;;;1.20;;
5951;SDS011;3001;42.622;23.194;2023-08-08T11:19:12;2.03;;;1.93;;
5951;SDS011;3001;42.622;23.194;2023-08-08T11:21:41;1.57;;;1.57;;
5951;SDS011;3001;42.622;23.194;2023-08-08T11:24:11;1.80;;;1.70;;
5951;SDS011;3001;42.622;23.194;2023-08-08T11:26:39;1.40;;;1.40;;
5951;SDS011;3001;42.622;23.194;2023-08-08T11:29:06;1.20;;;1.20;;
5951;SDS011;3001;42.622;23.194;2023-08-08T11:31:33;1.10;;;1.10;;
5951;SDS011;3001;42.622;23.194;2023-08-08T11:34:01;1.33;;;1.33;;
5951;SDS011;3001;42.622;23.194;2023-08-08T11:36:29;1.25;;;1.25;;
5951;SDS011;3001;42.622;23.194;2023-08-08T11:38:56;1.00;;;1.00;;
5951;SDS011;3001;42.622;23.194;2023-08-08T11:41:25;1.33;;;1.33;;
5951;SDS011;3001;42.622;23.194;2023-08-08T11:43:52;1.07;;;1.07;;
5951;SDS011;3001;42.622;23.194;2023-08-08T11:46:22;1.10;;;1.10;;
5951;SDS011;3001;42.622;23.194;2023-08-08T11:48:50;1.30;;;1.30;;
5951;SDS011;3001;42.622;23.194;2023-08-08T11:51:17;1.07;;;1.07;;
5951;SDS011;3001;42.622;23.194;2023-08-08T11:53:50;1.50;;;1.50;;
5951;SDS011;3001;42.622;23.194;2023-08-08T11:56:18;1.50;;;1.50;;
5951;SDS011;3001;42.622;23.194;2023-08-08T11:58:47;1.60;;;1.60;;
5951;SDS011;3001;42.622;23.194;2023-08-08T12:01:15;1.03;;;1.03;;
5951;SDS011;3001;42.622;23.194;2023-08-08T12:03:45;0.97;;;0.97;;
5951;SDS011;3001;42.622;23.194;2023-08-08T12:06:12;1.23;;;1.20;;
5951;SDS011;3001;42.622;23.194;2023-08-08T12:08:40;1.40;;;1.40;;
5951;SDS011;3001;42.622;23.194;2023-08-08T12:11:08;5.83;;;5.33;;
5951;SDS011;3001;42.622;23.194;2023-08-08T12:13:36;1.30;;;1.30;;
5951;SDS011;3001;42.622;23.194;2023-08-08T12:16:06;1.30;;;1.30;;
5951;SDS011;3001;42.622;23.194;2023-08-08T12:18:34;2.40;;;2.30;;
5951;SDS011;3001;42.622;23.194;2023-08-08T12:21:03;1.83;;;1.83;;
5951;SDS011;3001;42.622;23.194;2023-08-08T12:23:30;1.17;;;1.17;;
5951;SDS011;3001;42.622;23.194;2023-08-08T12:25:57;1.42;;;1.40;;
5951;SDS011;3001;42.622;23.194;2023-08-08T12:28:24;1.07;;;1.07;;
5951;SDS011;3001;42.622;23.194;2023-08-08T12:30:51;1.70;;;1.10;;
5951;SDS011;3001;42.622;23.194;2023-08-08T12:33:19;1.07;;;1.07;;
5951;SDS011;3001;42.622;23.194;2023-08-08T12:35:46;1.10;;;1.10;;
5951;SDS011;3001;42.622;23.194;2023-08-08T12:38:13;1.10;;;1.10;;
5951;SDS011;3001;42.622;23.194;2023-08-08T12:40:40;1.90;;;1.80;;
5951;SDS011;3001;42.622;23.194;2023-08-08T12:43:08;1.20;;;1.20;;
5951;SDS011;3001;42.622;23.194;2023-08-08T12:45:35;1.00;;;1.00;;
5951;SDS011;3001;42.622;23.194;2023-08-08T12:48:02;1.20;;;1.20;;
5951;SDS011;3001;42.622;23.194;2023-08-08T12:50:30;2.67;;;1.45;;
5951;SDS011;3001;42.622;23.194;2023-08-08T12:52:57;1.50;;;1.50;;
5951;SDS011;3001;42.622;23.194;2023-08-08T12:55:24;1.63;;;1.63;;
5951;SDS011;3001;42.622;23.194;2023-08-08T12:57:51;1.63;;;1.63;;
5951;SDS011;3001;42.622;23.194;2023-08-08T13:00:18;1.50;;;1.50;;
5951;SDS011;3001;42.622;23.194;2023-08-08T13:02:44;1.60;;;1.60;;
5951;SDS011;3001;42.622;23.194;2023-08-08T13:05:12;1.60;;;1.60;;
5951;SDS011;3001;42.622;23.194;2023-08-08T13:07:40;1.13;;;1.13;;
5951;SDS011;3001;42.622;23.194;2023-08-08T13:10:07;1.70;;;1.60;;
5951;SDS011;3001;42.622;23.194;2023-08-08T13:12:35;1.37;;;1.33;;
5951;SDS011;3001;42.622;23.194;2023-08-08T13:15:02;1.30;;;1.30;;
5951;SDS011;3001;42.622;23.194;2023-08-08T13:17:29;1.27;;;1.27;;
5951;SDS011;3001;42.622;23.194;2023-08-08T13:19:56;1.70;;;1.70;;
5951;SDS011;3001;42.622;23.194;2023-08-08T13:22:23;1.30;;;1.30;;
5951;SDS011;3001;42.622;23.194;2023-08-08T13:24:51;1.30;;;1.30;;
5951;SDS011;3001;42.622;23.194;2023-08-08T13:27:18;1.47;;;1.47;;
5951;SDS011;3001;42.622;23.194;2023-08-08T13:29:44;1.63;;;1.63;;
5951;SDS011;3001;42.622;23.194;2023-08-08T13:32:11;1.50;;;1.50;;
5951;SDS011;3001;42.622;23.194;2023-08-08T13:34:38;1.30;;;1.30;;
5951;SDS011;3001;42.622;23.194;2023-08-08T13:37:04;1.52;;;1.52;;
5951;SDS011;3001;42.622;23.194;2023-08-08T13:39:31;1.60;;;1.60;;
5951;SDS011;3001;42.622;23.194;2023-08-08T13:41:59;1.08;;;1.08;;
5951;SDS011;3001;42.622;23.194;2023-08-08T13:44:26;1.50;;;1.50;;
5951;SDS011;3001;42.622;23.194;2023-08-08T13:46:53;1.60;;;1.60;;
5951;SDS011;3001;42.622;23.194;2023-08-08T13:49:20;1.17;;;1.17;;
5951;SDS011;3001;42.622;23.194;2023-08-08T13:51:51;1.70;;;1.70;;
5951;SDS011;3001;42.622;23.194;2023-08-08T13:54:18;1.60;;;1.60;;
5951;SDS011;3001;42.622;23.194;2023-08-08T13:56:45;1.50;;;1.50;;
5951;SDS011;3001;42.622;23.194;2023-08-08T13:59:13;1.42;;;1.38;;
5951;SDS011;3001;42.622;23.194;2023-08-08T14:01:40;1.20;;;1.20;;
5951;SDS011;3001;42.622;23.194;2023-08-08T14:04:07;1.50;;;1.50;;
5951;SDS011;3001;42.622;23.194;2023-08-08T14:06:33;1.42;;;1.42;;
5951;SDS011;3001;42.622;23.194;2023-08-08T14:09:00;1.30;;;1.30;;
5951;SDS011;3001;42.622;23.194;2023-08-08T14:11:27;1.48;;;1.48;;
5951;SDS011;3001;42.622;23.194;2023-08-08T14:13:53;1.57;;;1.47;;
5951;SDS011;3001;42.622;23.194;2023-08-08T14:16:21;1.40;;;1.40;;
5951;SDS011;3001;42.622;23.194;2023-08-08T14:18:48;1.30;;;1.30;;
5951;SDS011;3001;42.622;23.194;2023-08-08T14:21:15;1.25;;;1.25;;
5951;SDS011;3001;42.622;23.194;2023-08-08T14:23:42;1.58;;;1.45;;
5951;SDS011;3001;42.622;23.194;2023-08-08T14:26:09;1.50;;;1.50;;
5951;SDS011;3001;42.622;23.194;2023-08-08T14:28:36;1.38;;;1.38;;
5951;SDS011;3001;42.622;23.194;2023-08-08T14:31:03;2.00;;;2.00;;
5951;SDS011;3001;42.622;23.194;2023-08-08T14:33:32;1.10;;;1.10;;
5951;SDS011;3001;42.622;23.194;2023-08-08T14:35:59;1.42;;;1.30;;
5951;SDS011;3001;42.622;23.194;2023-08-08T14:38:26;1.40;;;1.40;;
5951;SDS011;3001;42.622;23.194;2023-08-08T14:40:52;1.85;;;1.83;;
5951;SDS011;3001;42.622;23.194;2023-08-08T14:43:19;1.80;;;1.70;;
5951;SDS011;3001;42.622;23.194;2023-08-08T14:45:48;1.60;;;1.37;;
5951;SDS011;3001;42.622;23.194;2023-08-08T14:48:15;1.30;;;1.30;;
5951;SDS011;3001;42.622;23.194;2023-08-08T14:50:43;1.20;;;1.20;;
5951;SDS011;3001;42.622;23.194;2023-08-08T14:53:09;1.50;;;1.50;;
5951;SDS011;3001;42.622;23.194;2023-08-08T14:55:36;1.33;;;1.33;;
5951;SDS011;3001;42.622;23.194;2023-08-08T14:58:03;1.20;;;1.20;;
5951;SDS011;3001;42.622;23.194;2023-08-08T15:00:29;1.50;;;1.50;;